sensor_id;sensor_type;location;lat;lon;timestamp;temperature;humidity
59025;DHT22;44806;48.008;13.666;2024-01-10T00:01:01;-5.10;99.90
59025;DHT22;44806;48.008;13.666;2024-01-10T00:03:28;-5.10;99.90
59025;DHT22;44806;48.008;13.666;2024-01-10T00:05:55;-5.10;99.90
59025;DHT22;44806;48.008;13.666;2024-01-10T00:08:22;-5.10;99.90
59025;DHT22;44806;48.008;13.666;2024-01-10T00:10:49;-5.20;99.90
59025;DHT22;44806;48.008;13.666;2024-01-10T00:13:16;-5.20;99.70
59025;DHT22;44806;48.008;13.666;2024-01-10T00:15:44;-5.20;99.90
59025;DHT22;44806;48.008;13.666;2024-01-10T00:18:11;-5.20;99.90
59025;DHT22;44806;48.008;13.666;2024-01-10T00:20:38;-5.20;99.90
59025;DHT22;44806;48.008;13.666;2024-01-10T00:23:05;-5.20;99.90
59025;DHT22;44806;48.008;13.666;2024-01-10T00:25:33;-5.20;99.80
59025;DHT22;44806;48.008;13.666;2024-01-10T00:28:00;-5.20;99.90
59025;DHT22;44806;48.008;13.666;2024-01-10T00:30:26;-5.20;99.90
59025;DHT22;44806;48.008;13.666;2024-01-10T00:32:55;-5.20;99.90
59025;DHT22;44806;48.008;13.666;2024-01-10T00:35:22;-5.30;99.90
59025;DHT22;44806;48.008;13.666;2024-01-10T00:37:49;-5.30;99.90
59025;DHT22;44806;48.008;13.666;2024-01-10T00:40:16;-5.30;99.90
59025;DHT22;44806;48.008;13.666;2024-01-10T00:42:42;-5.40;99.90
59025;DHT22;44806;48.008;13.666;2024-01-10T00:45:09;-5.40;99.90
59025;DHT22;44806;48.008;13.666;2024-01-10T00:47:36;-5.40;99.90
59025;DHT22;44806;48.008;13.666;2024-01-10T00:50:05;-5.40;99.90
59025;DHT22;44806;48.008;13.666;2024-01-10T00:52:32;-5.40;99.90
59025;DHT22;44806;48.008;13.666;2024-01-10T00:54:59;-5.50;99.90
59025;DHT22;44806;48.008;13.666;2024-01-10T00:57:26;-5.50;99.90
59025;DHT22;44806;48.008;13.666;2024-01-10T00:59:53;-5.50;99.90
59025;DHT22;44806;48.008;13.666;2024-01-10T01:02:20;-5.40;99.90
59025;DHT22;44806;48.008;13.666;2024-01-10T01:04:47;-5.50;99.90
59025;DHT22;44806;48.008;13.666;2024-01-10T01:07:15;-5.40;99.90
59025;DHT22;44806;48.008;13.666;2024-01-10T01:09:42;-5.40;99.90
59025;DHT22;44806;48.008;13.666;2024-01-10T01:12:09;-5.50;99.90
59025;DHT22;44806;48.008;13.666;2024-01-10T01:14:36;-5.50;99.90
59025;DHT22;44806;48.008;13.666;2024-01-10T01:17:03;-5.50;99.90
59025;DHT22;44806;48.008;13.666;2024-01-10T01:19:30;-5.50;99.90
59025;DHT22;44806;48.008;13.666;2024-01-10T01:21:57;-5.50;99.90
59025;DHT22;44806;48.008;13.666;2024-01-10T01:24:25;-5.50;99.90
59025;DHT22;44806;48.008;13.666;2024-01-10T01:26:52;-5.50;99.90
59025;DHT22;44806;48.008;13.666;2024-01-10T01:29:19;-5.50;99.90
59025;DHT22;44806;48.008;13.666;2024-01-10T01:31:47;-5.50;99.90
59025;DHT22;44806;48.008;13.666;2024-01-10T01:34:14;-5.50;99.90
59025;DHT22;44806;48.008;13.666;2024-01-10T01:36:41;-5.50;99.90
59025;DHT22;44806;48.008;13.666;2024-01-10T01:39:08;-5.50;99.90
59025;DHT22;44806;48.008;13.666;2024-01-10T01:41:36;-5.50;99.90
59025;DHT22;44806;48.008;13.666;2024-01-10T01:44:03;-5.60;99.90
59025;DHT22;44806;48.008;13.666;2024-01-10T01:46:30;-5.60;99.90
59025;DHT22;44806;48.008;13.666;2024-01-10T01:48:58;-5.60;99.90
59025;DHT22;44806;48.008;13.666;2024-01-10T01:51:27;-5.60;99.90
59025;DHT22;44806;48.008;13.666;2024-01-10T01:53:55;-5.60;99.90
59025;DHT22;44806;48.008;13.666;2024-01-10T01:56:22;-5.70;99.90
59025;DHT22;44806;48.008;13.666;2024-01-10T01:58:51;-5.70;99.90
59025;DHT22;44806;48.008;13.666;2024-01-10T02:01:19;-5.70;99.90
59025;DHT22;44806;48.008;13.666;2024-01-10T02:03:47;-5.70;99.90
59025;DHT22;44806;48.008;13.666;2024-01-10T02:06:14;-5.70;99.90
59025;DHT22;44806;48.008;13.666;2024-01-10T02:08:41;-5.80;99.90
59025;DHT22;44806;48.008;13.666;2024-01-10T02:11:08;-5.80;99.90
59025;DHT22;44806;48.008;13.666;2024-01-10T02:13:35;-5.80;99.90
59025;DHT22;44806;48.008;13.666;2024-01-10T02:16:04;-5.80;99.90
59025;DHT22;44806;48.008;13.666;2024-01-10T02:18:31;-5.90;99.90
59025;DHT22;44806;48.008;13.666;2024-01-10T02:21:00;-5.90;99.90
59025;DHT22;44806;48.008;13.666;2024-01-10T02:23:27;-5.90;99.90
59025;DHT22;44806;48.008;13.666;2024-01-10T02:25:55;-5.90;99.90
59025;DHT22;44806;48.008;13.666;2024-01-10T02:28:22;-5.90;99.90
59025;DHT22;44806;48.008;13.666;2024-01-10T02:30:50;-5.90;99.90
59025;DHT22;44806;48.008;13.666;2024-01-10T02:33:17;-5.90;99.90
59025;DHT22;44806;48.008;13.666;2024-01-10T02:35:44;-5.90;99.90
59025;DHT22;44806;48.008;13.666;2024-01-10T02:38:11;-6.00;99.90
59025;DHT22;44806;48.008;13.666;2024-01-10T02:40:38;-6.00;99.90
59025;DHT22;44806;48.008;13.666;2024-01-10T02:43:06;-6.00;99.90
59025;DHT22;44806;48.008;13.666;2024-01-10T02:45:33;-6.00;99.90
59025;DHT22;44806;48.008;13.666;2024-01-10T02:48:01;-6.00;99.90
59025;DHT22;44806;48.008;13.666;2024-01-10T02:50:28;-6.10;99.90
59025;DHT22;44806;48.008;13.666;2024-01-10T02:52:55;-6.10;99.90
59025;DHT22;44806;48.008;13.666;2024-01-10T02:55:22;-6.10;99.90
59025;DHT22;44806;48.008;13.666;2024-01-10T02:57:48;-6.10;99.90
59025;DHT22;44806;48.008;13.666;2024-01-10T03:00:17;-6.10;99.90
59025;DHT22;44806;48.008;13.666;2024-01-10T03:02:44;-6.10;99.90
59025;DHT22;44806;48.008;13.666;2024-01-10T03:05:11;-6.10;99.90
59025;DHT22;44806;48.008;13.666;2024-01-10T03:07:38;-6.10;99.90
59025;DHT22;44806;48.008;13.666;2024-01-10T03:10:05;-6.10;99.90
59025;DHT22;44806;48.008;13.666;2024-01-10T03:12:33;-6.10;99.90
59025;DHT22;44806;48.008;13.666;2024-01-10T03:15:04;-6.20;99.90
59025;DHT22;44806;48.008;13.666;2024-01-10T03:17:33;-6.20;99.90
59025;DHT22;44806;48.008;13.666;2024-01-10T03:20:01;-6.20;99.90
59025;DHT22;44806;48.008;13.666;2024-01-10T03:22:30;-6.20;99.90
59025;DHT22;44806;48.008;13.666;2024-01-10T03:24:57;-6.20;99.90
59025;DHT22;44806;48.008;13.666;2024-01-10T03:27:24;-6.30;99.90
59025;DHT22;44806;48.008;13.666;2024-01-10T03:29:51;-6.20;99.90
59025;DHT22;44806;48.008;13.666;2024-01-10T03:34:45;-6.20;99.90
59025;DHT22;44806;48.008;13.666;2024-01-10T03:37:12;-6.30;99.90
59025;DHT22;44806;48.008;13.666;2024-01-10T03:39:39;-6.30;99.90
59025;DHT22;44806;48.008;13.666;2024-01-10T03:42:07;-6.30;99.90
59025;DHT22;44806;48.008;13.666;2024-01-10T03:44:34;-6.30;99.90
59025;DHT22;44806;48.008;13.666;2024-01-10T03:47:02;-6.30;99.90
59025;DHT22;44806;48.008;13.666;2024-01-10T03:49:29;-6.30;99.90
59025;DHT22;44806;48.008;13.666;2024-01-10T03:51:57;-6.30;99.90
59025;DHT22;44806;48.008;13.666;2024-01-10T03:54:24;-6.30;99.90
59025;DHT22;44806;48.008;13.666;2024-01-10T03:56:51;-6.40;99.90
59025;DHT22;44806;48.008;13.666;2024-01-10T03:59:18;-6.40;99.90
59025;DHT22;44806;48.008;13.666;2024-01-10T04:01:45;-6.40;99.90
59025;DHT22;44806;48.008;13.666;2024-01-10T04:04:12;-6.40;99.90
59025;DHT22;44806;48.008;13.666;2024-01-10T04:06:38;-6.50;99.90
59025;DHT22;44806;48.008;13.666;2024-01-10T04:09:07;-6.50;99.90
59025;DHT22;44806;48.008;13.666;2024-01-10T04:11:35;-6.50;99.90
59025;DHT22;44806;48.008;13.666;2024-01-10T04:14:02;-6.50;99.90
59025;DHT22;44806;48.008;13.666;2024-01-10T04:16:31;-6.50;99.90
59025;DHT22;44806;48.008;13.666;2024-01-10T04:18:58;-6.50;99.90
59025;DHT22;44806;48.008;13.666;2024-01-10T04:21:25;-6.50;99.90
59025;DHT22;44806;48.008;13.666;2024-01-10T04:23:51;-6.50;99.90
59025;DHT22;44806;48.008;13.666;2024-01-10T04:26:20;-6.50;99.90
59025;DHT22;44806;48.008;13.666;2024-01-10T04:28:47;-6.50;99.90
59025;DHT22;44806;48.008;13.666;2024-01-10T04:31:14;-6.50;99.90
59025;DHT22;44806;48.008;13.666;2024-01-10T04:33:41;-6.50;99.90
59025;DHT22;44806;48.008;13.666;2024-01-10T04:36:08;-6.60;99.90
59025;DHT22;44806;48.008;13.666;2024-01-10T04:38:35;-6.60;99.90
59025;DHT22;44806;48.008;13.666;2024-01-10T04:41:01;-6.60;99.90
59025;DHT22;44806;48.008;13.666;2024-01-10T04:43:30;-6.50;99.90
59025;DHT22;44806;48.008;13.666;2024-01-10T04:45:57;-6.60;99.90
59025;DHT22;44806;48.008;13.666;2024-01-10T04:48:23;-6.60;99.90
59025;DHT22;44806;48.008;13.666;2024-01-10T04:50:50;-6.60;99.90
59025;DHT22;44806;48.008;13.666;2024-01-10T04:53:17;-6.70;99.90
59025;DHT22;44806;48.008;13.666;2024-01-10T04:55:44;-6.70;99.90
59025;DHT22;44806;48.008;13.666;2024-01-10T04:58:11;-6.70;99.90
59025;DHT22;44806;48.008;13.666;2024-01-10T05:00:39;-6.70;99.90
59025;DHT22;44806;48.008;13.666;2024-01-10T05:03:06;-6.80;99.90
59025;DHT22;44806;48.008;13.666;2024-01-10T05:05:33;-6.90;99.90
59025;DHT22;44806;48.008;13.666;2024-01-10T05:08:00;-6.90;99.90
59025;DHT22;44806;48.008;13.666;2024-01-10T05:10:27;-6.90;99.90
59025;DHT22;44806;48.008;13.666;2024-01-10T05:12:54;-6.90;99.90
59025;DHT22;44806;48.008;13.666;2024-01-10T05:15:21;-6.90;99.90
59025;DHT22;44806;48.008;13.666;2024-01-10T05:17:50;-7.00;99.90
59025;DHT22;44806;48.008;13.666;2024-01-10T05:20:16;-7.00;99.90
59025;DHT22;44806;48.008;13.666;2024-01-10T05:22:44;-6.90;99.90
59025;DHT22;44806;48.008;13.666;2024-01-10T05:25:11;-6.90;99.90
59025;DHT22;44806;48.008;13.666;2024-01-10T05:27:38;-6.90;99.90
59025;DHT22;44806;48.008;13.666;2024-01-10T05:30:06;-6.90;99.90
59025;DHT22;44806;48.008;13.666;2024-01-10T05:32:33;-6.90;99.90
59025;DHT22;44806;48.008;13.666;2024-01-10T05:35:01;-7.10;99.90
59025;DHT22;44806;48.008;13.666;2024-01-10T05:37:28;-7.10;99.90
59025;DHT22;44806;48.008;13.666;2024-01-10T05:39:55;-7.00;99.90
59025;DHT22;44806;48.008;13.666;2024-01-10T05:42:22;-7.00;99.90
59025;DHT22;44806;48.008;13.666;2024-01-10T05:44:49;-7.00;99.90
59025;DHT22;44806;48.008;13.666;2024-01-10T05:47:16;-7.00;99.90
59025;DHT22;44806;48.008;13.666;2024-01-10T05:49:43;-7.00;99.90
59025;DHT22;44806;48.008;13.666;2024-01-10T05:52:11;-7.30;99.90
59025;DHT22;44806;48.008;13.666;2024-01-10T05:54:38;-7.30;99.90
59025;DHT22;44806;48.008;13.666;2024-01-10T05:57:05;-7.40;99.90
59025;DHT22;44806;48.008;13.666;2024-01-10T05:59:32;-7.40;99.90
59025;DHT22;44806;48.008;13.666;2024-01-10T06:02:01;-7.30;99.90
59025;DHT22;44806;48.008;13.666;2024-01-10T06:04:29;-7.30;99.90
59025;DHT22;44806;48.008;13.666;2024-01-10T06:06:57;-7.30;99.90
59025;DHT22;44806;48.008;13.666;2024-01-10T06:09:26;-7.50;99.90
59025;DHT22;44806;48.008;13.666;2024-01-10T06:11:53;-7.60;99.90
59025;DHT22;44806;48.008;13.666;2024-01-10T06:14:20;-7.60;99.90
59025;DHT22;44806;48.008;13.666;2024-01-10T06:16:47;-7.50;99.90
59025;DHT22;44806;48.008;13.666;2024-01-10T06:19:14;-7.50;99.90
59025;DHT22;44806;48.008;13.666;2024-01-10T06:21:41;-7.50;99.90
59025;DHT22;44806;48.008;13.666;2024-01-10T06:24:08;-7.50;99.90
59025;DHT22;44806;48.008;13.666;2024-01-10T06:26:36;-7.40;99.90
59025;DHT22;44806;48.008;13.666;2024-01-10T06:29:03;-7.40;99.90
59025;DHT22;44806;48.008;13.666;2024-01-10T06:31:30;-7.40;99.90
59025;DHT22;44806;48.008;13.666;2024-01-10T06:33:57;-7.40;99.90
59025;DHT22;44806;48.008;13.666;2024-01-10T06:36:23;-7.30;99.90
59025;DHT22;44806;48.008;13.666;2024-01-10T06:38:50;-7.30;99.90
59025;DHT22;44806;48.008;13.666;2024-01-10T06:41:17;-7.30;99.90
59025;DHT22;44806;48.008;13.666;2024-01-10T06:43:50;-7.20;99.90
59025;DHT22;44806;48.008;13.666;2024-01-10T06:46:18;-7.20;99.90
59025;DHT22;44806;48.008;13.666;2024-01-10T06:48:45;-7.20;99.90
59025;DHT22;44806;48.008;13.666;2024-01-10T06:51:13;-7.20;99.90
59025;DHT22;44806;48.008;13.666;2024-01-10T06:53:40;-7.20;99.90
59025;DHT22;44806;48.008;13.666;2024-01-10T06:56:07;-7.20;99.90
59025;DHT22;44806;48.008;13.666;2024-01-10T06:58:35;-7.20;99.90
59025;DHT22;44806;48.008;13.666;2024-01-10T07:01:03;-7.10;99.90
59025;DHT22;44806;48.008;13.666;2024-01-10T07:03:31;-7.10;99.90
59025;DHT22;44806;48.008;13.666;2024-01-10T07:06:00;-7.10;99.90
59025;DHT22;44806;48.008;13.666;2024-01-10T07:08:27;-7.10;99.90
59025;DHT22;44806;48.008;13.666;2024-01-10T07:10:56;-7.20;99.90
59025;DHT22;44806;48.008;13.666;2024-01-10T07:13:23;-7.20;99.90
59025;DHT22;44806;48.008;13.666;2024-01-10T07:15:50;-7.20;99.90
59025;DHT22;44806;48.008;13.666;2024-01-10T07:18:19;-7.20;99.90
59025;DHT22;44806;48.008;13.666;2024-01-10T07:20:46;-7.20;99.90
59025;DHT22;44806;48.008;13.666;2024-01-10T07:23:13;-7.20;99.90
59025;DHT22;44806;48.008;13.666;2024-01-10T07:25:40;-7.10;99.90
59025;DHT22;44806;48.008;13.666;2024-01-10T07:28:10;-7.10;99.90
59025;DHT22;44806;48.008;13.666;2024-01-10T07:30:39;-7.20;99.90
59025;DHT22;44806;48.008;13.666;2024-01-10T07:33:06;-7.10;99.90
59025;DHT22;44806;48.008;13.666;2024-01-10T07:35:35;-7.00;99.90
59025;DHT22;44806;48.008;13.666;2024-01-10T07:38:02;-7.00;99.90
59025;DHT22;44806;48.008;13.666;2024-01-10T07:40:28;-6.90;99.90
59025;DHT22;44806;48.008;13.666;2024-01-10T07:42:56;-7.00;99.90
59025;DHT22;44806;48.008;13.666;2024-01-10T07:45:22;-7.10;99.90
59025;DHT22;44806;48.008;13.666;2024-01-10T07:47:49;-7.10;99.90
59025;DHT22;44806;48.008;13.666;2024-01-10T07:50:16;-7.10;99.90
59025;DHT22;44806;48.008;13.666;2024-01-10T07:52:44;-7.10;99.90
59025;DHT22;44806;48.008;13.666;2024-01-10T07:55:12;-7.20;99.90
59025;DHT22;44806;48.008;13.666;2024-01-10T07:57:39;-7.20;99.90
59025;DHT22;44806;48.008;13.666;2024-01-10T08:00:08;-7.10;99.90
59025;DHT22;44806;48.008;13.666;2024-01-10T08:02:36;-7.00;99.90
59025;DHT22;44806;48.008;13.666;2024-01-10T08:05:03;-7.10;99.90
59025;DHT22;44806;48.008;13.666;2024-01-10T08:07:34;-7.00;99.90
59025;DHT22;44806;48.008;13.666;2024-01-10T08:10:04;-7.00;99.90
59025;DHT22;44806;48.008;13.666;2024-01-10T08:12:31;-6.90;99.90
59025;DHT22;44806;48.008;13.666;2024-01-10T08:14:58;-6.80;99.90
59025;DHT22;44806;48.008;13.666;2024-01-10T08:17:25;-6.70;99.90
59025;DHT22;44806;48.008;13.666;2024-01-10T08:19:52;-6.70;99.90
59025;DHT22;44806;48.008;13.666;2024-01-10T08:22:19;-6.60;99.90
59025;DHT22;44806;48.008;13.666;2024-01-10T08:24:46;-6.60;99.90
59025;DHT22;44806;48.008;13.666;2024-01-10T08:27:15;-6.50;99.90
59025;DHT22;44806;48.008;13.666;2024-01-10T08:29:42;-6.50;99.90
59025;DHT22;44806;48.008;13.666;2024-01-10T08:32:10;-6.40;99.90
59025;DHT22;44806;48.008;13.666;2024-01-10T08:34:37;-6.40;99.90
59025;DHT22;44806;48.008;13.666;2024-01-10T08:37:04;-6.30;99.90
59025;DHT22;44806;48.008;13.666;2024-01-10T08:39:31;-6.30;99.90
59025;DHT22;44806;48.008;13.666;2024-01-10T08:41:58;-6.20;99.90
59025;DHT22;44806;48.008;13.666;2024-01-10T08:44:26;-6.30;99.90
59025;DHT22;44806;48.008;13.666;2024-01-10T08:46:53;-6.30;99.90
59025;DHT22;44806;48.008;13.666;2024-01-10T08:49:20;-6.30;99.90
59025;DHT22;44806;48.008;13.666;2024-01-10T08:51:47;-6.20;99.90
59025;DHT22;44806;48.008;13.666;2024-01-10T08:54:14;-6.10;99.90
59025;DHT22;44806;48.008;13.666;2024-01-10T08:56:45;-6.10;99.90
59025;DHT22;44806;48.008;13.666;2024-01-10T08:59:12;-6.00;99.90
59025;DHT22;44806;48.008;13.666;2024-01-10T09:01:42;-5.90;99.90
59025;DHT22;44806;48.008;13.666;2024-01-10T09:04:09;-5.80;99.90
59025;DHT22;44806;48.008;13.666;2024-01-10T09:06:35;-5.80;99.90
59025;DHT22;44806;48.008;13.666;2024-01-10T09:09:02;-5.70;99.90
59025;DHT22;44806;48.008;13.666;2024-01-10T09:11:29;-5.80;99.90
59025;DHT22;44806;48.008;13.666;2024-01-10T09:13:56;-5.70;99.90
59025;DHT22;44806;48.008;13.666;2024-01-10T09:16:24;-5.60;99.90
59025;DHT22;44806;48.008;13.666;2024-01-10T09:18:53;-5.50;99.90
59025;DHT22;44806;48.008;13.666;2024-01-10T09:21:22;-5.40;99.90
59025;DHT22;44806;48.008;13.666;2024-01-10T09:23:50;-5.20;99.90
59025;DHT22;44806;48.008;13.666;2024-01-10T09:26:17;-5.20;99.90
59025;DHT22;44806;48.008;13.666;2024-01-10T09:28:44;-4.90;99.90
59025;DHT22;44806;48.008;13.666;2024-01-10T09:31:11;-5.10;99.90
59025;DHT22;44806;48.008;13.666;2024-01-10T09:33:38;-5.00;99.90
59025;DHT22;44806;48.008;13.666;2024-01-10T09:36:07;-4.90;99.90
59025;DHT22;44806;48.008;13.666;2024-01-10T09:38:35;-4.90;99.90
59025;DHT22;44806;48.008;13.666;2024-01-10T09:41:03;-4.90;99.90
59025;DHT22;44806;48.008;13.666;2024-01-10T09:43:31;-4.90;99.90
59025;DHT22;44806;48.008;13.666;2024-01-10T09:46:00;-4.80;99.90
59025;DHT22;44806;48.008;13.666;2024-01-10T09:48:28;-4.90;99.90
59025;DHT22;44806;48.008;13.666;2024-01-10T09:50:56;-4.90;99.90
59025;DHT22;44806;48.008;13.666;2024-01-10T09:53:25;-4.80;99.90
59025;DHT22;44806;48.008;13.666;2024-01-10T09:55:52;-4.80;99.90
59025;DHT22;44806;48.008;13.666;2024-01-10T09:58:23;-4.70;99.90
59025;DHT22;44806;48.008;13.666;2024-01-10T10:00:51;-4.60;99.90
59025;DHT22;44806;48.008;13.666;2024-01-10T10:03:19;-4.60;99.90
59025;DHT22;44806;48.008;13.666;2024-01-10T10:05:46;-4.60;99.90
59025;DHT22;44806;48.008;13.666;2024-01-10T10:08:14;-4.50;99.90
59025;DHT22;44806;48.008;13.666;2024-01-10T10:10:50;-4.50;99.90
59025;DHT22;44806;48.008;13.666;2024-01-10T10:13:27;-4.50;99.90
59025;DHT22;44806;48.008;13.666;2024-01-10T10:15:58;-4.50;99.90
59025;DHT22;44806;48.008;13.666;2024-01-10T10:18:26;-4.50;99.90
59025;DHT22;44806;48.008;13.666;2024-01-10T10:21:10;-4.40;99.90
59025;DHT22;44806;48.008;13.666;2024-01-10T10:23:38;-4.40;99.90
59025;DHT22;44806;48.008;13.666;2024-01-10T10:26:14;-4.40;99.90
59025;DHT22;44806;48.008;13.666;2024-01-10T10:28:46;-4.30;99.90
59025;DHT22;44806;48.008;13.666;2024-01-10T10:31:13;-4.30;99.90
59025;DHT22;44806;48.008;13.666;2024-01-10T10:33:40;-4.20;99.90
59025;DHT22;44806;48.008;13.666;2024-01-10T10:36:07;-4.10;99.90
59025;DHT22;44806;48.008;13.666;2024-01-10T10:38:35;-4.10;99.90
59025;DHT22;44806;48.008;13.666;2024-01-10T10:41:04;-4.10;99.90
59025;DHT22;44806;48.008;13.666;2024-01-10T10:43:34;-4.10;99.90
59025;DHT22;44806;48.008;13.666;2024-01-10T10:46:04;-4.10;99.90
59025;DHT22;44806;48.008;13.666;2024-01-10T10:48:33;-3.90;99.90
59025;DHT22;44806;48.008;13.666;2024-01-10T10:51:04;-3.80;99.90
59025;DHT22;44806;48.008;13.666;2024-01-10T10:53:34;-3.80;99.90
59025;DHT22;44806;48.008;13.666;2024-01-10T10:56:03;-3.70;99.90
59025;DHT22;44806;48.008;13.666;2024-01-10T10:58:34;-3.70;99.90
59025;DHT22;44806;48.008;13.666;2024-01-10T11:01:04;-3.80;99.90
59025;DHT22;44806;48.008;13.666;2024-01-10T11:03:34;-3.70;99.90
59025;DHT22;44806;48.008;13.666;2024-01-10T11:06:03;-3.70;99.90
59025;DHT22;44806;48.008;13.666;2024-01-10T11:08:34;-3.70;99.90
59025;DHT22;44806;48.008;13.666;2024-01-10T11:11:04;-3.70;99.90
59025;DHT22;44806;48.008;13.666;2024-01-10T11:13:50;-3.60;99.90
59025;DHT22;44806;48.008;13.666;2024-01-10T11:16:41;-3.50;99.90
59025;DHT22;44806;48.008;13.666;2024-01-10T11:19:32;-3.40;99.90
59025;DHT22;44806;48.008;13.666;2024-01-10T11:22:10;-3.30;99.90
59025;DHT22;44806;48.008;13.666;2024-01-10T11:24:41;-3.30;99.90
59025;DHT22;44806;48.008;13.666;2024-01-10T11:27:11;-3.30;99.90
59025;DHT22;44806;48.008;13.666;2024-01-10T11:29:40;-3.20;99.90
59025;DHT22;44806;48.008;13.666;2024-01-10T11:32:13;-3.10;99.90
59025;DHT22;44806;48.008;13.666;2024-01-10T11:34:50;-3.00;99.90
59025;DHT22;44806;48.008;13.666;2024-01-10T11:37:16;-3.00;99.90
59025;DHT22;44806;48.008;13.666;2024-01-10T11:39:44;-3.00;99.90
59025;DHT22;44806;48.008;13.666;2024-01-10T11:42:11;-3.10;99.90
59025;DHT22;44806;48.008;13.666;2024-01-10T11:44:51;-3.10;99.90
59025;DHT22;44806;48.008;13.666;2024-01-10T11:47:19;-3.10;99.90
59025;DHT22;44806;48.008;13.666;2024-01-10T11:49:56;-3.00;99.90
59025;DHT22;44806;48.008;13.666;2024-01-10T11:52:31;-3.00;99.90
59025;DHT22;44806;48.008;13.666;2024-01-10T11:54:58;-2.90;99.90
59025;DHT22;44806;48.008;13.666;2024-01-10T11:57:27;-2.90;99.90
59025;DHT22;44806;48.008;13.666;2024-01-10T11:59:56;-2.90;99.90
59025;DHT22;44806;48.008;13.666;2024-01-10T12:02:25;-2.80;99.90
59025;DHT22;44806;48.008;13.666;2024-01-10T12:04:54;-2.70;99.90
59025;DHT22;44806;48.008;13.666;2024-01-10T12:07:21;-2.80;99.90
59025;DHT22;44806;48.008;13.666;2024-01-10T12:09:49;-2.70;99.90
59025;DHT22;44806;48.008;13.666;2024-01-10T12:12:16;-2.70;99.90
59025;DHT22;44806;48.008;13.666;2024-01-10T12:14:43;-2.80;99.90
59025;DHT22;44806;48.008;13.666;2024-01-10T12:17:13;-2.70;99.90
59025;DHT22;44806;48.008;13.666;2024-01-10T12:19:40;-2.70;99.90
59025;DHT22;44806;48.008;13.666;2024-01-10T12:22:10;-2.70;99.90
59025;DHT22;44806;48.008;13.666;2024-01-10T12:24:43;-2.70;99.90
59025;DHT22;44806;48.008;13.666;2024-01-10T12:27:11;-2.60;99.90
59025;DHT22;44806;48.008;13.666;2024-01-10T12:29:38;-2.60;99.90
59025;DHT22;44806;48.008;13.666;2024-01-10T12:32:07;-2.50;99.90
59025;DHT22;44806;48.008;13.666;2024-01-10T12:34:38;-2.50;99.90
59025;DHT22;44806;48.008;13.666;2024-01-10T12:37:06;-2.50;99.70
59025;DHT22;44806;48.008;13.666;2024-01-10T12:39:33;-2.50;99.70
59025;DHT22;44806;48.008;13.666;2024-01-10T12:42:00;-2.50;99.90
59025;DHT22;44806;48.008;13.666;2024-01-10T12:44:30;-2.50;99.90
59025;DHT22;44806;48.008;13.666;2024-01-10T12:46:57;-2.60;99.90
59025;DHT22;44806;48.008;13.666;2024-01-10T12:49:25;-2.60;99.90
59025;DHT22;44806;48.008;13.666;2024-01-10T12:51:53;-2.50;99.90
59025;DHT22;44806;48.008;13.666;2024-01-10T12:54:20;-2.50;99.90
59025;DHT22;44806;48.008;13.666;2024-01-10T12:56:47;-2.50;99.90
59025;DHT22;44806;48.008;13.666;2024-01-10T12:59:14;-2.50;99.90
59025;DHT22;44806;48.008;13.666;2024-01-10T13:01:41;-2.50;99.90
59025;DHT22;44806;48.008;13.666;2024-01-10T13:04:08;-2.50;99.90
59025;DHT22;44806;48.008;13.666;2024-01-10T13:06:38;-2.50;99.90
59025;DHT22;44806;48.008;13.666;2024-01-10T13:09:07;-2.50;99.90
59025;DHT22;44806;48.008;13.666;2024-01-10T13:11:34;-2.50;99.90
59025;DHT22;44806;48.008;13.666;2024-01-10T13:14:01;-2.50;99.90
59025;DHT22;44806;48.008;13.666;2024-01-10T13:16:28;-2.50;99.90
59025;DHT22;44806;48.008;13.666;2024-01-10T13:18:56;-2.50;99.90
59025;DHT22;44806;48.008;13.666;2024-01-10T13:21:25;-2.60;99.90
59025;DHT22;44806;48.008;13.666;2024-01-10T13:23:51;-2.50;99.90
59025;DHT22;44806;48.008;13.666;2024-01-10T13:26:20;-2.50;99.90
59025;DHT22;44806;48.008;13.666;2024-01-10T13:28:47;-2.50;99.90
59025;DHT22;44806;48.008;13.666;2024-01-10T13:31:14;-2.40;99.90
59025;DHT22;44806;48.008;13.666;2024-01-10T13:33:41;-2.40;99.90
59025;DHT22;44806;48.008;13.666;2024-01-10T13:36:08;-2.30;99.90
59025;DHT22;44806;48.008;13.666;2024-01-10T13:38:35;-2.30;99.90
59025;DHT22;44806;48.008;13.666;2024-01-10T13:41:02;-2.10;99.90
59025;DHT22;44806;48.008;13.666;2024-01-10T13:43:32;-2.20;99.90
59025;DHT22;44806;48.008;13.666;2024-01-10T13:45:59;-2.20;99.90
59025;DHT22;44806;48.008;13.666;2024-01-10T13:48:26;-2.20;99.90
59025;DHT22;44806;48.008;13.666;2024-01-10T13:50:53;-2.20;99.80
59025;DHT22;44806;48.008;13.666;2024-01-10T13:53:20;-2.20;99.90
59025;DHT22;44806;48.008;13.666;2024-01-10T13:55:47;-2.20;99.90
59025;DHT22;44806;48.008;13.666;2024-01-10T13:58:15;-2.20;99.90
59025;DHT22;44806;48.008;13.666;2024-01-10T14:00:45;-2.20;99.90
59025;DHT22;44806;48.008;13.666;2024-01-10T14:03:12;-2.20;99.90
59025;DHT22;44806;48.008;13.666;2024-01-10T14:05:39;-2.30;99.90
59025;DHT22;44806;48.008;13.666;2024-01-10T14:08:06;-2.20;99.90
59025;DHT22;44806;48.008;13.666;2024-01-10T14:10:34;-2.20;99.90
59025;DHT22;44806;48.008;13.666;2024-01-10T14:13:01;-2.10;99.90
59025;DHT22;44806;48.008;13.666;2024-01-10T14:15:29;-2.00;99.90
59025;DHT22;44806;48.008;13.666;2024-01-10T14:17:57;-2.10;99.90
59025;DHT22;44806;48.008;13.666;2024-01-10T14:20:24;-2.10;99.90
59025;DHT22;44806;48.008;13.666;2024-01-10T14:22:51;-2.10;99.90
59025;DHT22;44806;48.008;13.666;2024-01-10T14:25:18;-2.10;99.90
59025;DHT22;44806;48.008;13.666;2024-01-10T14:27:46;-2.10;99.90
59025;DHT22;44806;48.008;13.666;2024-01-10T14:30:13;-2.10;99.90
59025;DHT22;44806;48.008;13.666;2024-01-10T14:32:41;-2.10;99.90
59025;DHT22;44806;48.008;13.666;2024-01-10T14:35:09;-2.10;99.60
59025;DHT22;44806;48.008;13.666;2024-01-10T14:37:36;-2.10;99.80
59025;DHT22;44806;48.008;13.666;2024-01-10T14:40:03;-2.10;99.80
59025;DHT22;44806;48.008;13.666;2024-01-10T14:42:32;-2.10;99.90
59025;DHT22;44806;48.008;13.666;2024-01-10T14:44:59;-2.10;99.80
59025;DHT22;44806;48.008;13.666;2024-01-10T14:47:26;-2.10;99.70
59025;DHT22;44806;48.008;13.666;2024-01-10T14:49:54;-2.10;99.60
59025;DHT22;44806;48.008;13.666;2024-01-10T14:52:22;-2.10;99.30
59025;DHT22;44806;48.008;13.666;2024-01-10T14:54:50;-2.10;99.30
59025;DHT22;44806;48.008;13.666;2024-01-10T14:57:17;-2.10;99.20
59025;DHT22;44806;48.008;13.666;2024-01-10T14:59:44;-2.10;99.40
59025;DHT22;44806;48.008;13.666;2024-01-10T15:02:11;-2.20;99.20
59025;DHT22;44806;48.008;13.666;2024-01-10T15:04:38;-2.20;99.60
59025;DHT22;44806;48.008;13.666;2024-01-10T15:07:06;-2.30;99.20
59025;DHT22;44806;48.008;13.666;2024-01-10T15:09:34;-2.20;99.60
59025;DHT22;44806;48.008;13.666;2024-01-10T15:12:03;-2.30;99.30
59025;DHT22;44806;48.008;13.666;2024-01-10T15:14:33;-2.30;99.50
59025;DHT22;44806;48.008;13.666;2024-01-10T15:17:00;-2.40;99.10
59025;DHT22;44806;48.008;13.666;2024-01-10T15:19:29;-2.40;99.40
59025;DHT22;44806;48.008;13.666;2024-01-10T15:21:57;-2.50;99.30